createdAt,value
2023-04-18T00:02:38.545Z,102598.41
2023-04-18T00:06:00.877Z,102595.81
2023-04-18T00:09:22.569Z,102600.19
2023-04-18T00:12:44.529Z,102602.00
2023-04-18T00:16:08.055Z,102597.50
2023-04-18T00:19:31.479Z,102601.91
2023-04-18T00:22:55.070Z,102604.66
2023-04-18T00:26:17.826Z,102602.94
2023-04-18T00:29:42.558Z,102588.88
2023-04-18T00:33:04.481Z,102592.50
2023-04-18T00:36:28.180Z,102609.41
2023-04-18T00:39:49.691Z,102600.72
2023-04-18T00:43:10.945Z,102605.34
2023-04-18T00:46:35.448Z,102609.88
2023-04-18T00:49:57.111Z,102605.63
2023-04-18T00:53:21.152Z,102606.63
2023-04-18T00:56:43.085Z,102602.19
2023-04-18T01:00:09.334Z,102601.31
2023-04-18T01:03:33.044Z,102606.63
2023-04-18T01:06:55.202Z,102612.78
2023-04-18T01:10:18.862Z,102609.34
2023-04-18T01:13:40.314Z,102611.06
2023-04-18T01:17:02.186Z,102600.28
2023-04-18T01:20:26.133Z,102608.16
2023-04-18T01:23:48.851Z,102613.47
2023-04-18T01:27:14.443Z,102607.50
2023-04-18T01:30:35.910Z,102608.47
2023-04-18T01:33:57.708Z,102622.72
2023-04-18T01:37:19.532Z,102613.09
2023-04-18T01:40:41.010Z,102611.44
2023-04-18T01:44:03.657Z,102611.69
2023-04-18T01:47:25.275Z,102616.41
2023-04-18T01:50:47.047Z,102606.06
2023-04-18T01:54:08.485Z,102611.59
2023-04-18T01:57:30.482Z,102617.94
2023-04-18T02:00:54.741Z,102606.66
2023-04-18T02:04:16.685Z,102607.81
2023-04-18T02:07:42.745Z,102601.81
2023-04-18T02:11:04.730Z,102602.13
2023-04-18T02:14:27.778Z,102599.75
2023-04-18T02:17:51.487Z,102604.69
2023-04-18T02:21:13.425Z,102599.78
2023-04-18T02:24:35.721Z,102595.84
2023-04-18T02:27:58.173Z,102600.69
2023-04-18T02:31:19.649Z,102600.97
2023-04-18T02:34:42.373Z,102608.38
2023-04-18T02:38:04.097Z,102605.06
2023-04-18T02:41:25.919Z,102592.91
2023-04-18T02:44:48.712Z,102605.50
2023-04-18T02:48:10.999Z,102603.94
2023-04-18T02:51:34.547Z,102608.41
2023-04-18T02:54:56.917Z,102611.28
2023-04-18T02:58:22.781Z,102610.47
2023-04-18T03:02:05.392Z,102613.97
2023-04-18T03:05:28.793Z,102611.34
2023-04-18T03:08:55.761Z,102608.53
2023-04-18T03:12:18.621Z,102606.59
2023-04-18T03:15:41.300Z,102607.34
2023-04-18T03:19:05.318Z,102612.63
2023-04-18T03:22:28.805Z,102617.91
2023-04-18T03:25:53.611Z,102611.63
2023-04-18T03:29:16.184Z,102616.09
2023-04-18T03:32:42.220Z,102615.16
2023-04-18T03:36:04.448Z,102616.06
2023-04-18T03:39:26.033Z,102615.91
2023-04-18T03:42:50.508Z,102625.44
2023-04-18T03:46:12.059Z,102625.31
2023-04-18T03:49:33.923Z,102627.03
2023-04-18T03:52:57.851Z,102626.00
2023-04-18T03:56:19.799Z,102630.28
2023-04-18T03:59:51.104Z,102626.59
2023-04-18T04:03:13.716Z,102630.06
2023-04-18T04:06:36.454Z,102628.34
2023-04-18T04:09:58.610Z,102628.22
2023-04-18T04:13:20.557Z,102629.88
2023-04-18T04:16:45.207Z,102621.78
2023-04-18T04:20:10.964Z,102634.94
2023-04-18T04:23:33.176Z,102631.31
2023-04-18T04:26:56.345Z,102636.50
2023-04-18T04:30:19.751Z,102631.97
2023-04-18T04:33:43.675Z,102641.59
2023-04-18T04:37:13.983Z,102640.59
2023-04-18T04:40:47.519Z,102645.75
2023-04-18T04:44:09.626Z,102641.22
2023-04-18T04:47:31.966Z,102644.63
2023-04-18T04:50:56.692Z,102642.03
2023-04-18T04:54:18.109Z,102650.88
2023-04-18T04:57:40.394Z,102654.44
2023-04-18T05:01:18.015Z,102665.84
2023-04-18T05:04:40.201Z,102659.56
2023-04-18T05:08:03.711Z,102657.75
2023-04-18T05:11:25.945Z,102660.25
2023-04-18T05:14:47.287Z,102665.44
2023-04-18T05:18:09.026Z,102660.03
2023-04-18T05:21:31.367Z,102661.53
2023-04-18T05:24:54.415Z,102661.41
2023-04-18T05:28:16.919Z,102664.81
2023-04-18T05:31:38.621Z,102666.47
2023-04-18T05:35:00.399Z,102666.44
2023-04-18T05:38:22.043Z,102666.25
2023-04-18T05:41:45.261Z,102667.06
2023-04-18T05:45:07.954Z,102661.75
2023-04-18T05:48:29.644Z,102668.63
2023-04-18T05:51:52.883Z,102672.84
2023-04-18T05:55:14.305Z,102669.97
2023-04-18T05:58:37.415Z,102666.34
2023-04-18T06:01:59.114Z,102674.78
2023-04-18T06:05:20.581Z,102679.03
2023-04-18T06:08:42.865Z,102678.06
2023-04-18T06:12:05.208Z,102681.56
2023-04-18T06:15:29.077Z,102682.16
2023-04-18T06:18:50.707Z,102682.72
2023-04-18T06:22:12.414Z,102682.56
2023-04-18T06:25:34.316Z,102674.41
2023-04-18T06:28:56.211Z,102678.53
2023-04-18T06:32:19.057Z,102677.47
2023-04-18T06:35:41.259Z,102682.56
2023-04-18T06:39:03.002Z,102678.88
2023-04-18T06:42:24.340Z,102679.72
2023-04-18T06:45:46.550Z,102683.97
2023-04-18T06:49:09.868Z,102682.97
2023-04-18T06:52:31.495Z,102696.13
2023-04-18T06:55:53.375Z,102682.72
2023-04-18T06:59:15.110Z,102696.47
2023-04-18T07:02:38.675Z,102686.50
2023-04-18T07:06:02.862Z,102682.78
2023-04-18T07:09:24.578Z,102678.94
2023-04-18T07:12:47.854Z,102680.41
2023-04-18T07:16:10.942Z,102683.69
2023-04-18T07:19:33.121Z,102689.56
2023-04-18T07:22:55.729Z,102700.72
2023-04-18T07:26:17.638Z,102700.38
2023-04-18T07:29:39.327Z,102693.06
2023-04-18T07:33:01.284Z,102700.00
2023-04-18T07:36:22.832Z,102696.19
2023-04-18T07:39:45.595Z,102703.09
2023-04-18T07:43:07.178Z,102701.19
2023-04-18T07:46:28.970Z,102699.22
2023-04-18T07:49:51.636Z,102703.38
2023-04-18T07:53:13.873Z,102704.06
2023-04-18T07:56:36.938Z,102701.22
2023-04-18T07:59:58.331Z,102701.16
2023-04-18T08:03:20.271Z,102700.22
2023-04-18T08:06:42.649Z,102701.91
2023-04-18T08:10:04.931Z,102707.16
2023-04-18T08:13:28.023Z,102706.13
2023-04-18T08:16:49.450Z,102713.97
2023-04-18T08:20:12.919Z,102714.75
2023-04-18T08:23:59.953Z,102712.91
2023-04-18T08:27:21.610Z,102714.56
2023-04-18T08:30:48.645Z,102720.72
2023-04-18T08:34:10.372Z,102721.31
2023-04-18T08:37:35.187Z,102717.59
2023-04-18T08:40:57.087Z,102711.28
2023-04-18T08:44:19.330Z,102717.88
2023-04-18T08:47:42.798Z,102717.16
2023-04-18T08:51:05.547Z,102720.88
2023-04-18T08:54:30.546Z,102720.63
2023-04-18T08:57:54.167Z,102724.91
2023-04-18T09:01:17.897Z,102717.66
2023-04-18T09:04:43.263Z,102722.72
2023-04-18T09:08:24.612Z,102724.25
2023-04-18T09:11:46.611Z,102721.38
2023-04-18T09:15:14.137Z,102720.44
2023-04-18T09:18:35.654Z,102715.81
2023-04-18T09:22:04.578Z,102710.16
2023-04-18T09:25:29.278Z,102714.97
2023-04-18T09:28:54.521Z,102706.66
2023-04-18T09:32:25.097Z,102697.38
2023-04-18T09:35:47.105Z,102696.19
2023-04-18T09:39:10.479Z,102698.53
2023-04-18T09:42:37.415Z,102699.09
2023-04-18T09:46:01.119Z,102698.50
2023-04-18T09:49:23.801Z,102699.00
2023-04-18T09:52:46.889Z,102695.91
2023-04-18T09:56:14.205Z,102694.59
2023-04-18T09:59:42.675Z,102691.38
2023-04-18T10:03:08.213Z,102690.16
2023-04-18T10:06:30.109Z,102701.47
2023-04-18T10:09:53.044Z,102709.97
2023-04-18T10:13:16.341Z,102697.25
2023-04-18T10:16:39.017Z,102702.25
2023-04-18T10:20:10.146Z,102693.81
2023-04-18T10:23:36.850Z,102689.09
2023-04-18T10:26:59.513Z,102695.97
2023-04-18T10:30:54.338Z,102693.75
2023-04-18T10:34:19.677Z,102687.13
2023-04-18T10:37:51.102Z,102684.97
2023-04-18T10:41:18.399Z,102672.31
2023-04-18T10:44:40.497Z,102673.84
2023-04-18T10:48:27.724Z,102675.13
2023-04-18T10:51:51.165Z,102669.19
2023-04-18T10:55:16.965Z,102665.97
2023-04-18T10:58:42.179Z,102670.00
2023-04-18T11:02:12.063Z,102668.59
2023-04-18T11:05:35.968Z,102667.38
2023-04-18T11:09:11.070Z,102669.09
2023-04-18T11:12:33.644Z,102666.06
2023-04-18T11:15:56.887Z,102672.75
2023-04-18T11:19:23.263Z,102659.38
2023-04-18T11:22:50.727Z,102659.00
2023-04-18T11:26:14.420Z,102657.81
2023-04-18T11:29:36.173Z,102656.41
2023-04-18T11:32:57.743Z,102658.00
2023-04-18T11:36:19.883Z,102653.25
2023-04-18T11:39:44.602Z,102647.72
2023-04-18T11:43:08.070Z,102656.22
2023-04-18T11:46:39.072Z,102650.47
2023-04-18T11:50:02.782Z,102650.28
2023-04-18T11:53:34.818Z,102645.63
2023-04-18T11:56:57.947Z,102650.50
2023-04-18T12:00:22.169Z,102643.88
2023-04-18T12:03:45.476Z,102639.09
2023-04-18T12:07:07.681Z,102653.81
2023-04-18T12:10:30.612Z,102638.31
2023-04-18T12:13:57.936Z,102645.19
2023-04-18T12:17:19.461Z,102637.81
2023-04-18T12:20:46.691Z,102643.63
2023-04-18T12:24:16.012Z,102640.88
2023-04-18T12:27:52.240Z,102638.84
2023-04-18T12:31:15.692Z,102636.84
2023-04-18T12:34:37.300Z,102637.38
2023-04-18T12:38:00.835Z,102631.84
2023-04-18T12:41:22.392Z,102633.34
2023-04-18T12:44:45.828Z,102630.25
2023-04-18T12:48:09.937Z,102624.50
2023-04-18T12:51:32.135Z,102632.88
2023-04-18T12:54:56.267Z,102625.28
2023-04-18T12:58:20.510Z,102620.41
2023-04-18T13:01:42.021Z,102608.53
2023-04-18T13:05:05.264Z,102612.41
2023-04-18T13:08:26.828Z,102610.19
2023-04-18T13:11:49.644Z,102605.16
2023-04-18T13:15:12.730Z,102614.78
2023-04-18T13:18:34.637Z,102608.91
2023-04-18T13:21:58.454Z,102594.97
2023-04-18T13:25:19.994Z,102598.28
2023-04-18T13:28:42.197Z,102594.41
2023-04-18T13:32:03.896Z,102587.78
2023-04-18T13:35:25.919Z,102591.88
2023-04-18T13:38:49.027Z,102596.56
2023-04-18T13:42:11.018Z,102595.28
2023-04-18T13:45:32.846Z,102586.03
2023-04-18T13:48:54.640Z,102585.81
2023-04-18T13:52:17.551Z,102589.25
2023-04-18T13:55:40.307Z,102587.63
2023-04-18T13:59:02.510Z,102590.22
2023-04-18T14:02:24.354Z,102591.19
2023-04-18T14:05:45.849Z,102590.09
2023-04-18T14:09:07.972Z,102588.59
2023-04-18T14:12:31.343Z,102595.38
2023-04-18T14:15:53.884Z,102596.47
2023-04-18T14:19:16.108Z,102609.00
2023-04-18T14:22:37.787Z,102593.13
2023-04-18T14:25:59.257Z,102588.84
2023-04-18T14:29:22.575Z,102591.41
2023-04-18T14:32:44.291Z,102584.03
2023-04-18T14:36:07.055Z,102590.75
2023-04-18T14:39:28.970Z,102584.09
2023-04-18T14:42:50.463Z,102580.34
2023-04-18T14:46:14.228Z,102592.03
2023-04-18T14:49:35.877Z,102593.72
2023-04-18T14:52:57.803Z,102585.16
2023-04-18T14:56:21.257Z,102566.31
2023-04-18T14:59:43.232Z,102587.63
2023-04-18T15:03:08.932Z,102572.66
2023-04-18T15:06:32.606Z,102579.06
2023-04-18T15:09:54.475Z,102582.94
2023-04-18T15:13:15.907Z,102590.44
2023-04-18T15:16:39.935Z,102588.22
2023-04-18T15:20:07.041Z,102577.06
2023-04-18T15:23:28.882Z,102575.47
2023-04-18T15:26:50.733Z,102582.00
2023-04-18T15:30:13.347Z,102578.03
2023-04-18T15:33:34.843Z,102580.09
2023-04-18T15:36:58.160Z,102581.16
2023-04-18T15:40:20.170Z,102579.66
2023-04-18T15:43:42.390Z,102585.22
2023-04-18T15:47:04.722Z,102600.53
2023-04-18T15:50:26.777Z,102591.97
2023-04-18T15:53:50.189Z,102579.84
2023-04-18T15:57:12.061Z,102594.44
2023-04-18T16:00:33.658Z,102601.03
2023-04-18T16:03:55.782Z,102596.13
2023-04-18T16:07:17.805Z,102589.44
2023-04-18T16:10:41.514Z,102589.53
2023-04-18T16:14:03.685Z,102600.34
2023-04-18T16:17:25.803Z,102601.75
2023-04-18T16:20:48.143Z,102618.09
2023-04-18T16:24:10.094Z,102609.72
2023-04-18T16:27:33.810Z,102612.81
2023-04-18T16:30:55.979Z,102605.50
2023-04-18T16:34:17.831Z,102602.34
2023-04-18T16:37:40.106Z,102608.03
2023-04-18T16:41:01.808Z,102605.72
2023-04-18T16:44:25.309Z,102602.50
2023-04-18T16:47:46.685Z,102610.72
2023-04-18T16:51:08.502Z,102634.13
2023-04-18T16:54:30.654Z,102617.81
2023-04-18T16:57:52.666Z,102618.22
2023-04-18T17:01:15.652Z,102625.69
2023-04-18T17:04:37.526Z,102625.59
2023-04-18T17:07:58.799Z,102614.34
2023-04-18T17:11:20.819Z,102625.69
2023-04-18T17:14:42.384Z,102628.91
2023-04-18T17:18:06.340Z,102630.34
2023-04-18T17:21:27.732Z,102619.75
2023-04-18T17:24:49.263Z,102627.69
2023-04-18T17:28:11.771Z,102626.97
2023-04-18T17:31:34.409Z,102623.63
2023-04-18T17:34:57.683Z,102638.09
2023-04-18T17:38:19.548Z,102641.06
2023-04-18T17:41:41.128Z,102634.28
2023-04-18T17:45:02.841Z,102637.41
2023-04-18T17:48:24.873Z,102635.66
2023-04-18T17:51:48.297Z,102644.81
2023-04-18T17:55:10.576Z,102636.09
2023-04-18T17:58:32.078Z,102634.09
2023-04-18T18:01:53.893Z,102635.31
2023-04-18T18:05:16.579Z,102629.56
2023-04-18T18:08:40.538Z,102634.44
2023-04-18T18:12:02.558Z,102638.69
2023-04-18T18:15:24.710Z,102647.81
2023-04-18T18:18:46.533Z,102676.69
2023-04-18T18:22:08.541Z,102667.75
2023-04-18T18:25:32.174Z,102672.81
2023-04-18T18:28:54.715Z,102673.00
2023-04-18T18:32:16.790Z,102674.09
2023-04-18T18:35:38.437Z,102680.44
2023-04-18T18:39:00.070Z,102676.78
2023-04-18T18:42:22.951Z,102691.03
2023-04-18T18:45:44.718Z,102693.69
2023-04-18T18:49:06.210Z,102695.66
2023-04-18T18:52:29.772Z,102702.88
2023-04-18T18:55:51.458Z,102703.91
2023-04-18T18:59:15.844Z,102711.38
2023-04-18T19:02:38.114Z,102718.41
2023-04-18T19:06:03.907Z,102704.78
2023-04-18T19:09:25.702Z,102711.22
2023-04-18T19:12:47.363Z,102706.16
2023-04-18T19:16:10.506Z,102712.00
2023-04-18T19:19:32.058Z,102715.00
2023-04-18T19:22:53.899Z,102714.13
2023-04-18T19:26:15.640Z,102702.69
2023-04-18T19:29:37.553Z,102718.75
2023-04-18T19:33:00.727Z,102709.94
2023-04-18T19:36:22.702Z,102708.47
2023-04-18T19:39:44.438Z,102704.94
2023-04-18T19:43:06.481Z,102700.72
2023-04-18T19:46:28.400Z,102705.41
2023-04-18T19:49:51.723Z,102701.97
2023-04-18T19:53:15.516Z,102712.91
2023-04-18T19:56:37.852Z,102713.91
2023-04-18T19:59:59.838Z,102709.78
2023-04-18T20:03:21.942Z,102708.28
2023-04-18T20:06:45.268Z,102708.44
2023-04-18T20:10:08.891Z,102706.13
2023-04-18T20:13:30.929Z,102713.47
2023-04-18T20:16:52.447Z,102714.47
2023-04-18T20:20:14.223Z,102716.34
2023-04-18T20:23:37.667Z,102710.84
2023-04-18T20:27:00.602Z,102706.13
2023-04-18T20:30:22.647Z,102714.28
2023-04-18T20:33:44.694Z,102716.44
2023-04-18T20:37:07.565Z,102709.69
2023-04-18T20:40:31.025Z,102703.06
2023-04-18T20:43:53.722Z,102703.19
2023-04-18T20:47:16.098Z,102703.19
2023-04-18T20:50:40.009Z,102704.38
2023-04-18T20:54:01.618Z,102707.16
2023-04-18T20:57:24.770Z,102701.75
2023-04-18T21:00:46.687Z,102710.38
2023-04-18T21:04:09.569Z,102711.16
2023-04-18T21:07:32.127Z,102712.09
2023-04-18T21:10:54.047Z,102708.81
2023-04-18T21:14:17.656Z,102711.91
2023-04-18T21:17:39.336Z,102720.22
2023-04-18T21:21:01.298Z,102711.59
2023-04-18T21:24:22.812Z,102714.59
2023-04-18T21:27:44.601Z,102721.94
2023-04-18T21:31:08.196Z,102715.97
2023-04-18T21:34:30.110Z,102714.22
2023-04-18T21:37:52.094Z,102716.03
2023-04-18T21:41:15.802Z,102708.28
2023-04-18T21:44:37.969Z,102709.50
2023-04-18T21:48:00.954Z,102706.22
2023-04-18T21:51:22.440Z,102708.94
2023-04-18T21:54:44.226Z,102710.72
2023-04-18T21:58:06.264Z,102704.69
2023-04-18T22:01:27.964Z,102702.09
2023-04-18T22:04:51.067Z,102702.97
2023-04-18T22:08:12.481Z,102704.63
2023-04-18T22:11:33.904Z,102699.38
2023-04-18T22:14:56.711Z,102695.78
2023-04-18T22:18:19.728Z,102689.09
2023-04-18T22:21:42.723Z,102691.81
2023-04-18T22:25:04.994Z,102689.16
2023-04-18T22:28:28.025Z,102691.75
2023-04-18T22:31:49.988Z,102685.31
2023-04-18T22:35:11.757Z,102683.47
2023-04-18T22:38:35.551Z,102685.31
2023-04-18T22:41:57.179Z,102689.03
2023-04-18T22:45:19.578Z,102675.72
2023-04-18T22:48:40.882Z,102684.47
2023-04-18T22:52:02.595Z,102683.47
2023-04-18T22:55:25.734Z,102683.59
2023-04-18T22:58:47.291Z,102673.13
2023-04-18T23:02:08.969Z,102680.81
2023-04-18T23:05:31.492Z,102671.91
2023-04-18T23:08:53.210Z,102677.16
2023-04-18T23:12:18.394Z,102674.97
2023-04-18T23:15:40.159Z,102680.41
2023-04-18T23:19:01.942Z,102674.34
2023-04-18T23:22:24.456Z,102678.94
2023-04-18T23:25:46.207Z,102679.88
2023-04-18T23:29:08.988Z,102686.09
2023-04-18T23:32:30.584Z,102686.22
2023-04-18T23:35:51.964Z,102689.03
2023-04-18T23:39:13.467Z,102684.75
2023-04-18T23:42:35.934Z,102675.31
2023-04-18T23:45:59.116Z,102684.41
2023-04-18T23:49:20.493Z,102680.03
2023-04-18T23:52:42.394Z,102684.63
2023-04-18T23:56:04.036Z,102680.34
2023-04-18T23:59:25.779Z,102677.56
